Time;durP1;ratioP1;P1;durP2;ratioP2;P2;SDS_P1;SDS_P2;PMS_P1;PMS_P2;Temp;Humidity;BMP_temperature;BMP_pressure;BME280_temperature;BME280_humidity;BME280_pressure;Samples;Min_cycle;Max_cycle;Signal;HPM_P1;HPM_P2
2022/05/26 00:01:40;;;;;;;6.13;0.93;;;13.10;98.40;;;;;;5019531;28;20012;-63
2022/05/26 00:04:06;;;;;;;2.30;0.80;;;13.00;98.50;;;;;;5021246;28;20040;-64
2022/05/26 00:06:31;;;;;;;;;;;13.10;98.70;;;;;;5021584;28;20046;-66
2022/05/26 00:08:58;;;;;;;6.60;1.00;;;13.10;98.80;;;;;;5020681;28;19960;-64
2022/05/26 00:11:31;;;;;;;5.28;0.80;;;13.10;98.70;;;;;;5009885;28;20050;-65
2022/05/26 00:13:58;;;;;;;3.70;0.95;;;13.10;99.10;;;;;;5020612;28;20038;-63
2022/05/26 00:16:25;;;;;;;2.67;0.80;;;13.00;98.90;;;;;;5021630;28;20041;-66
2022/05/26 00:18:51;;;;;;;3.70;1.20;;;13.00;99.10;;;;;;5008631;28;20037;-62
2022/05/26 00:21:17;;;;;;;;;;;13.00;99.00;;;;;;5009517;28;20030;-65
2022/05/26 00:23:42;;;;;;;4.07;1.10;;;13.00;99.10;;;;;;5008571;28;19952;-65
2022/05/26 00:26:08;;;;;;;;;;;13.00;99.40;;;;;;5009476;28;20049;-65
2022/05/26 00:28:34;;;;;;;3.10;1.27;;;13.00;99.40;;;;;;5008898;28;19928;-63
2022/05/26 00:30:59;;;;;;;;;;;13.00;99.60;;;;;;5007942;28;20045;-63
2022/05/26 00:33:25;;;;;;;3.00;1.10;;;13.00;99.80;;;;;;5009093;28;19917;-64
2022/05/26 00:35:51;;;;;;;4.80;1.20;;;13.00;99.70;;;;;;5008680;28;20049;-65
2022/05/26 00:38:17;;;;;;;;;;;12.90;99.90;;;;;;5008251;28;20083;-63
2022/05/26 00:40:45;;;;;;;4.25;1.40;;;12.90;99.90;;;;;;5008100;28;20008;-65
2022/05/26 00:43:11;;;;;;;2.53;1.20;;;12.90;99.90;;;;;;5008457;28;20124;-65
2022/05/26 00:45:43;;;;;;;7.15;1.90;;;12.90;99.90;;;;;;5008894;28;20131;-65
2022/05/26 00:48:16;;;;;;;3.20;1.30;;;12.90;99.90;;;;;;5008077;28;20129;-66
2022/05/26 00:50:48;;;;;;;2.65;1.65;;;12.90;99.90;;;;;;5006867;28;20041;-65
2022/05/26 00:53:27;;;;;;;4.28;1.33;;;12.80;99.90;;;;;;5007827;28;20106;-65
2022/05/26 00:56:07;;;;;;;4.30;1.30;;;12.80;99.90;;;;;;5008833;28;20041;-65
2022/05/26 00:58:39;;;;;;;1.70;1.52;;;12.80;99.90;;;;;;5007908;28;20064;-64
2022/05/26 01:01:05;;;;;;;5.32;2.28;;;12.70;99.90;;;;;;5002933;28;20038;-65
2022/05/26 01:03:33;;;;;;;;;;;12.60;99.90;;;;;;5006375;28;21405;-64
2022/05/26 01:06:01;;;;;;;4.63;2.05;;;12.50;99.90;;;;;;5002843;28;20393;-62
2022/05/26 01:08:50;;;;;;;10.43;2.28;;;12.50;99.90;;;;;;5007708;28;20045;-64
2022/05/26 01:11:15;;;;;;;8.07;2.80;;;12.50;99.90;;;;;;5008151;28;20138;-65
2022/05/26 01:13:47;;;;;;;;;;;12.50;99.90;;;;;;5007363;28;20030;-66
2022/05/26 01:16:35;;;;;;;4.93;2.40;;;12.40;99.90;;;;;;5008481;28;20016;-65
2022/05/26 01:19:31;;;;;;;6.88;2.97;;;12.40;99.90;;;;;;5008075;28;20137;-65
2022/05/26 01:22:12;;;;;;;4.00;2.60;;;12.40;99.90;;;;;;5008355;28;20046;-63
2022/05/26 01:24:58;;;;;;;6.82;2.92;;;12.40;99.90;;;;;;5007961;28;20045;-65
2022/05/26 01:27:36;;;;;;;8.65;2.97;;;12.30;99.90;;;;;;5008650;28;20054;-64
2022/05/26 01:30:20;;;;;;;6.60;2.78;;;12.30;99.90;;;;;;5006058;28;20069;-64
2022/05/26 01:33:21;;;;;;;6.75;3.08;;;12.40;99.90;;;;;;4998839;28;20042;-65
2022/05/26 01:36:00;;;;;;;11.73;3.20;;;12.30;99.90;;;;;;4985461;28;20125;-65
2022/05/26 01:38:49;;;;;;;8.82;2.92;;;12.30;99.90;;;;;;5007626;28;20041;-63
2022/05/26 01:41:43;;;;;;;3.33;2.42;;;12.30;99.90;;;;;;4982054;28;20819;-65
2022/05/26 01:44:27;;;;;;;4.60;2.55;;;12.30;99.90;;;;;;4993752;28;20050;-64
2022/05/26 01:46:58;;;;;;;3.72;2.75;;;12.40;99.90;;;;;;5007336;28;20045;-65
2022/05/26 01:49:34;;;;;;;14.80;3.05;;;12.40;99.90;;;;;;5007062;28;20037;-65
2022/05/26 01:52:14;;;;;;;4.60;2.40;;;12.30;99.90;;;;;;5006859;28;20041;-66
2022/05/26 01:54:45;;;;;;;5.55;3.33;;;12.40;99.90;;;;;;5006373;28;20034;-65
2022/05/26 01:57:20;;;;;;;8.00;3.38;;;12.30;99.90;;;;;;5007212;28;20053;-64
2022/05/26 01:59:55;;;;;;;6.20;3.45;;;12.30;99.90;;;;;;5006600;28;20041;-65
2022/05/26 02:02:34;;;;;;;6.80;2.90;;;12.30;99.90;;;;;;4988859;28;20073;-64
2022/05/26 02:05:14;;;;;;;7.93;3.58;;;12.40;99.90;;;;;;4978108;28;20046;-65
2022/05/26 02:07:56;;;;;;;9.00;5.03;;;12.30;99.90;;;;;;4987384;28;20070;-66
2022/05/26 02:10:43;;;;;;;7.22;2.70;;;12.30;99.90;;;;;;4986753;28;20030;-65
2022/05/26 02:13:18;;;;;;;7.18;3.00;;;12.30;99.90;;;;;;4987107;28;20042;-65
2022/05/26 02:15:52;;;;;;;7.75;2.95;;;12.30;99.90;;;;;;4988460;28;20044;-64
2022/05/26 02:18:31;;;;;;;6.05;2.75;;;12.30;99.90;;;;;;4988756;28;20108;-65
2022/05/26 02:21:03;;;;;;;7.40;3.50;;;12.30;99.90;;;;;;4988016;28;20092;-65
2022/05/26 02:23:44;;;;;;;5.50;2.92;;;12.30;99.90;;;;;;4987460;28;20117;-65
2022/05/26 02:26:09;;;;;;;6.88;3.25;;;12.30;99.90;;;;;;4986857;28;20042;-65
2022/05/26 02:31:30;;;;;;;8.32;2.90;;;12.30;99.90;;;;;;4971825;28;19968;-66
2022/05/26 02:33:59;;;;;;;9.02;3.40;;;12.30;99.90;;;;;;5007049;28;20046;-65
2022/05/26 02:36:29;;;;;;;4.28;2.25;;;12.30;99.90;;;;;;5006226;28;20085;-64
2022/05/26 02:38:55;;;;;;;4.07;2.30;;;12.30;99.90;;;;;;5007214;28;20512;-65
2022/05/26 02:41:21;;;;;;;;;;;12.30;99.90;;;;;;5004135;28;20034;-65
2022/05/26 02:43:47;;;;;;;7.28;2.85;;;12.30;99.90;;;;;;5005643;28;20594;-65
2022/05/26 02:46:26;;;;;;;;;;;12.40;99.90;;;;;;5006598;28;20070;-65
2022/05/26 02:49:30;;;;;;;4.82;2.55;;;12.30;99.90;;;;;;5006366;28;19975;-65
2022/05/26 02:52:09;;;;;;;3.80;3.28;;;12.30;99.90;;;;;;5001787;28;20116;-65
2022/05/26 02:55:08;;;;;;;4.78;2.88;;;12.30;99.90;;;;;;5006708;28;20041;-66
2022/05/26 02:57:50;;;;;;;10.88;2.72;;;12.30;99.90;;;;;;4986042;28;20046;-66
2022/05/26 03:00:19;;;;;;;8.70;3.38;;;12.30;99.90;;;;;;5005308;28;20041;-65
2022/05/26 03:03:15;;;;;;;3.30;2.35;;;12.30;99.90;;;;;;5004837;28;20052;-65
2022/05/26 03:06:14;;;;;;;6.20;2.80;;;12.30;99.90;;;;;;5006056;28;20100;-65
2022/05/26 03:08:42;;;;;;;3.38;2.30;;;12.30;99.90;;;;;;4962850;28;20498;-65
2022/05/26 03:11:16;;;;;;;2.80;2.10;;;12.30;99.90;;;;;;5005984;28;20034;-65
2022/05/26 03:13:42;;;;;;;7.15;2.22;;;12.30;99.90;;;;;;5006156;28;20534;-65
2022/05/26 03:16:07;;;;;;;;;;;12.30;99.90;;;;;;5007069;28;20089;-65
2022/05/26 03:18:34;;;;;;;6.80;2.15;;;12.30;99.90;;;;;;5006283;28;19917;-65
2022/05/26 03:21:01;;;;;;;13.88;2.05;;;12.30;99.90;;;;;;5006537;28;20700;-66
2022/05/26 03:23:27;;;;;;;4.93;2.08;;;12.30;99.90;;;;;;5006609;28;20117;-66
2022/05/26 03:25:57;;;;;;;3.75;2.58;;;12.40;99.90;;;;;;5006177;28;20045;-65
2022/05/26 03:28:28;;;;;;;5.78;1.88;;;12.30;99.90;;;;;;5005593;28;20046;-65
2022/05/26 03:30:54;;;;;;;7.90;2.30;;;12.40;99.90;;;;;;5005327;28;20030;-65
2022/05/26 03:33:20;;;;;;;3.78;1.48;;;12.40;99.90;;;;;;5005909;28;20077;-66
2022/05/26 03:41:20;;;;;;;5.55;1.92;;;12.40;99.90;;;;;;5005449;28;20037;-67
2022/05/26 03:43:49;;;;;;;3.95;2.13;;;12.40;99.90;;;;;;5006606;28;20077;-66
2022/05/26 03:46:15;;;;;;;8.52;2.50;;;12.40;99.90;;;;;;5006102;28;20050;-64
2022/05/26 03:48:41;;;;;;;;;;;12.40;99.90;;;;;;5006930;28;20042;-64
2022/05/26 03:51:07;;;;;;;8.50;2.88;;;12.30;99.90;;;;;;5005925;28;19917;-64
2022/05/26 03:53:34;;;;;;;6.65;2.80;;;12.30;99.90;;;;;;5008213;28;20614;-65
2022/05/26 03:56:00;;;;;;;3.33;1.80;;;12.30;99.90;;;;;;5009837;28;20042;-65
2022/05/26 03:58:26;;;;;;;6.22;2.95;;;12.40;99.90;;;;;;5009094;28;20046;-65
2022/05/26 04:00:52;;;;;;;;;;;12.30;99.90;;;;;;5008864;28;20126;-65
2022/05/26 04:03:18;;;;;;;7.57;2.70;;;12.30;99.90;;;;;;5009137;28;20595;-65
2022/05/26 04:05:44;;;;;;;;;;;12.30;99.90;;;;;;5009646;28;20053;-65
2022/05/26 04:08:10;;;;;;;5.70;3.05;;;12.20;99.90;;;;;;5009708;28;19961;-66
2022/05/26 04:10:35;;;;;;;5.50;3.15;;;12.20;99.90;;;;;;5009838;28;20100;-66
2022/05/26 04:13:01;;;;;;;;;;;12.20;99.90;;;;;;5008784;28;20049;-64
2022/05/26 04:15:26;;;;;;;6.15;3.17;;;12.30;99.90;;;;;;5008811;28;19913;-64
2022/05/26 04:17:52;;;;;;;;;;;12.30;99.90;;;;;;5010102;28;20037;-64
2022/05/26 04:20:20;;;;;;;4.38;2.35;;;12.30;99.90;;;;;;5011288;28;19966;-64
2022/05/26 04:22:46;;;;;;;7.97;3.25;;;12.30;99.90;;;;;;5009004;28;20042;-63
2022/05/26 04:25:12;;;;;;;;;;;12.30;99.90;;;;;;5019601;28;20063;-63
2022/05/26 04:27:37;;;;;;;4.03;2.78;;;12.30;99.90;;;;;;5015354;28;19932;-63
2022/05/26 04:30:04;;;;;;;;;;;12.20;99.90;;;;;;5020538;28;20034;-62
2022/05/26 04:32:30;;;;;;;4.78;2.78;;;12.20;99.90;;;;;;5007927;28;19917;-65
2022/05/26 04:34:56;;;;;;;;;;;12.20;99.90;;;;;;5009174;28;20701;-64
2022/05/26 04:37:24;;;;;;;5.78;3.47;;;12.30;99.90;;;;;;5008854;28;19925;-64
2022/05/26 04:39:50;;;;;;;8.82;2.90;;;12.20;99.90;;;;;;5008466;28;20045;-63
2022/05/26 04:42:17;;;;;;;4.78;2.78;;;12.30;99.90;;;;;;5008712;28;20048;-62
2022/05/26 04:44:44;;;;;;;5.82;2.83;;;12.30;99.90;;;;;;5015248;28;20048;-63
2022/05/26 04:47:11;;;;;;;3.47;2.75;;;12.30;99.90;;;;;;5015359;28;20038;-62
2022/05/26 04:49:37;;;;;;;5.50;3.38;;;12.30;99.90;;;;;;5018298;28;20065;-65
2022/05/26 04:52:07;;;;;;;4.88;3.13;;;12.30;99.90;;;;;;5017765;28;20478;-64
2022/05/26 04:54:35;;;;;;;5.10;2.60;;;12.20;99.90;;;;;;5022167;28;20072;-64
2022/05/26 04:57:01;;;;;;;3.30;2.50;;;12.30;99.90;;;;;;5018781;28;20053;-64
2022/05/26 04:59:27;;;;;;;6.90;2.42;;;12.30;99.90;;;;;;5014338;28;20050;-64
2022/05/26 05:01:53;;;;;;;3.80;2.45;;;12.40;99.90;;;;;;5020287;28;20030;-63
2022/05/26 05:04:21;;;;;;;;;;;12.40;99.90;;;;;;5006442;28;20045;-64
2022/05/26 05:06:47;;;;;;;3.42;2.15;;;12.40;99.90;;;;;;5008110;28;19932;-63
2022/05/26 05:09:12;;;;;;;;;;;12.40;99.90;;;;;;5008966;28;20046;-63
2022/05/26 05:11:38;;;;;;;3.53;2.30;;;12.30;99.90;;;;;;5007907;28;19995;-63
2022/05/26 05:14:03;;;;;;;;;;;12.40;99.90;;;;;;5008350;28;20061;-64
2022/05/26 05:16:33;;;;;;;3.95;2.17;;;12.40;99.90;;;;;;5006651;28;19917;-64
2022/05/26 05:18:59;;;;;;;4.22;2.25;;;12.50;99.90;;;;;;5008550;28;20045;-64
2022/05/26 05:21:43;;;;;;;;;;;12.50;99.90;;;;;;5008253;28;20037;-63
2022/05/26 05:24:23;;;;;;;7.18;1.90;;;12.50;99.90;;;;;;5008268;28;20008;-64
2022/05/26 05:26:54;;;;;;;5.50;2.47;;;12.50;99.90;;;;;;5007831;28;20045;-65
2022/05/26 05:29:23;;;;;;;5.53;2.75;;;12.50;99.90;;;;;;5007694;28;20052;-65
2022/05/26 05:31:55;;;;;;;6.38;1.92;;;12.50;99.90;;;;;;5006447;28;20045;-64
2022/05/26 05:34:33;;;;;;;4.47;2.30;;;12.50;99.90;;;;;;5007669;28;20120;-65
2022/05/26 05:36:59;;;;;;;5.90;2.25;;;12.60;99.90;;;;;;5007481;28;20049;-63
2022/05/26 05:39:25;;;;;;;;;;;12.70;99.90;;;;;;5008221;28;20042;-64
2022/05/26 05:41:54;;;;;;;2.75;1.50;;;12.60;99.90;;;;;;5006573;28;19921;-65
2022/05/26 05:44:20;;;;;;;5.97;2.20;;;12.70;99.90;;;;;;5007667;28;20042;-64
2022/05/26 05:46:57;;;;;;;4.55;2.28;;;12.70;99.90;;;;;;5007429;28;20038;-62
2022/05/26 05:49:25;;;;;;;7.05;3.38;;;12.60;99.90;;;;;;5007162;28;20582;-64
2022/05/26 05:51:51;;;;;;;5.22;2.70;;;12.60;99.90;;;;;;5007351;28;20042;-63
2022/05/26 05:54:17;;;;;;;;;;;12.70;99.90;;;;;;5007525;28;20045;-63
2022/05/26 05:56:43;;;;;;;4.07;2.47;;;12.60;99.90;;;;;;5007322;28;20044;-64
2022/05/26 05:59:08;;;;;;;;;;;12.50;99.90;;;;;;5007033;28;20526;-65
2022/05/26 06:01:34;;;;;;;7.45;2.72;;;12.50;99.90;;;;;;5005192;28;19975;-64
2022/05/26 06:04:00;;;;;;;;;;;12.50;99.90;;;;;;5007464;28;20497;-63
2022/05/26 06:06:26;;;;;;;5.15;2.85;;;12.50;99.90;;;;;;5007530;28;19968;-64
2022/05/26 06:08:51;;;;;;;;;;;12.50;99.90;;;;;;5007453;28;20737;-65
2022/05/26 06:11:17;;;;;;;6.35;3.17;;;12.60;99.90;;;;;;5006746;28;20680;-64
2022/05/26 06:13:42;;;;;;;;;;;12.60;99.90;;;;;;5007471;28;20413;-64
2022/05/26 06:16:08;;;;;;;8.13;3.15;;;12.70;99.90;;;;;;5006516;28;19969;-64
2022/05/26 06:18:34;;;;;;;;;;;12.70;99.90;;;;;;5007105;28;20529;-65
2022/05/26 06:21:04;;;;;;;6.95;2.67;;;12.70;99.90;;;;;;5006408;28;19921;-63
2022/05/26 06:23:30;;;;;;;7.78;2.80;;;12.70;99.90;;;;;;5006173;28;20065;-64
2022/05/26 06:25:56;;;;;;;;;;;12.70;99.90;;;;;;4986160;28;20054;-64
2022/05/26 06:31:08;;;;;;;5.57;3.00;;;12.70;99.90;;;;;;5001318;28;20041;-65
2022/05/26 06:39:03;;;;;;;4.00;2.88;;;12.60;99.90;;;;;;4994060;28;20682;-64
2022/05/26 06:44:13;;;;;;;6.78;3.72;;;12.60;99.90;;;;;;5006706;28;20486;-64
2022/05/26 06:46:39;;;;;;;;;;;12.40;99.90;;;;;;5006644;28;20056;-64
2022/05/26 06:49:06;;;;;;;5.38;3.00;;;12.30;99.90;;;;;;5005989;28;19988;-64
2022/05/26 06:51:32;;;;;;;4.63;2.45;;;12.40;99.90;;;;;;5006387;28;20121;-64
2022/05/26 06:53:57;;;;;;;3.28;2.70;;;12.40;99.90;;;;;;5006778;28;20069;-65
2022/05/26 06:56:24;;;;;;;;;;;12.40;99.90;;;;;;5005693;28;20116;-62
2022/05/26 06:58:49;;;;;;;3.83;2.83;;;12.40;99.90;;;;;;5006234;28;19971;-65
2022/05/26 07:01:15;;;;;;;;;;;12.40;99.90;;;;;;5005263;28;20041;-65
2022/05/26 07:03:42;;;;;;;4.05;2.40;;;12.50;99.90;;;;;;5006363;28;20004;-65
2022/05/26 07:06:20;;;;;;;3.58;2.50;;;12.60;99.90;;;;;;5006213;28;20409;-64
2022/05/26 07:08:46;;;;;;;3.35;2.70;;;12.60;99.90;;;;;;5006137;28;20049;-64
2022/05/26 07:11:12;;;;;;;7.13;3.08;;;12.60;99.90;;;;;;5006144;28;20081;-64
2022/05/26 07:13:38;;;;;;;2.97;2.15;;;12.60;99.90;;;;;;5003662;28;20103;-65
2022/05/26 07:16:04;;;;;;;;;;;12.60;99.90;;;;;;5002978;28;20556;-64
2022/05/26 07:18:30;;;;;;;3.63;2.20;;;12.60;99.90;;;;;;5006387;28;19995;-64
2022/05/26 07:20:56;;;;;;;;;;;12.60;99.90;;;;;;5006276;28;20037;-64
2022/05/26 07:23:21;;;;;;;4.90;3.05;;;12.70;99.90;;;;;;5005858;28;20012;-65
2022/05/26 07:25:47;;;;;;;;;;;12.60;99.90;;;;;;5005755;28;20085;-62
2022/05/26 07:28:13;;;;;;;6.22;3.13;;;12.70;99.90;;;;;;5008763;28;19992;-65
2022/05/26 07:30:41;;;;;;;;;;;12.70;99.90;;;;;;5010704;28;20033;-64
2022/05/26 07:33:08;;;;;;;5.78;3.03;;;12.80;99.90;;;;;;5011601;28;20008;-64
2022/05/26 07:35:33;;;;;;;6.93;3.85;;;12.80;99.90;;;;;;5010817;28;20438;-65
2022/05/26 07:43:32;;;;;;;8.10;3.92;;;12.70;99.90;;;;;;5010250;28;20042;-63
2022/05/26 07:45:57;;;;;;;;;;;12.80;99.90;;;;;;5010512;28;20464;-64
2022/05/26 07:48:23;;;;;;;7.32;4.97;;;12.80;99.90;;;;;;5009825;28;19921;-64
2022/05/26 07:50:49;;;;;;;;;;;13.40;99.90;;;;;;5009844;28;20037;-64
2022/05/26 07:53:14;;;;;;;7.70;4.45;;;14.90;99.90;;;;;;5009454;28;19927;-65
2022/05/26 07:55:42;;;;;;;11.02;4.97;;;15.80;99.90;;;;;;5009405;28;20115;-63
2022/05/26 07:58:12;;;;;;;7.20;4.72;;;15.80;99.90;;;;;;5009950;28;20096;-62
2022/05/26 08:00:39;;;;;;;12.50;5.35;;;15.50;99.90;;;;;;5009091;28;20049;-64
2022/05/26 08:03:05;;;;;;;10.63;5.32;;;15.20;99.90;;;;;;5009977;28;20042;-65
2022/05/26 08:05:32;;;;;;;9.43;5.25;;;15.00;99.90;;;;;;5009636;28;20045;-64
2022/05/26 08:07:58;;;;;;;11.95;5.80;;;15.00;99.90;;;;;;5009415;28;20038;-65
2022/05/26 08:10:23;;;;;;;;;;;14.70;99.90;;;;;;5007817;28;20525;-63
2022/05/26 08:12:52;;;;;;;13.20;6.68;;;14.50;99.90;;;;;;5009381;28;19945;-65
2022/05/26 08:15:20;;;;;;;11.95;6.07;;;14.30;99.90;;;;;;5008963;28;20069;-63
2022/05/26 08:17:45;;;;;;;12.60;5.32;;;14.10;99.90;;;;;;5009147;28;20038;-64
2022/05/26 08:20:11;;;;;;;;;;;14.10;99.90;;;;;;5008891;28;20078;-64
2022/05/26 08:22:43;;;;;;;9.15;4.65;;;13.90;99.90;;;;;;5008788;28;19929;-63
2022/05/26 08:25:14;;;;;;;10.80;5.75;;;13.80;99.90;;;;;;5009149;28;20341;-64
2022/05/26 08:27:43;;;;;;;8.48;5.07;;;13.60;99.90;;;;;;5009686;28;20521;-67
2022/05/26 08:30:09;;;;;;;12.45;6.07;;;13.70;99.90;;;;;;5009223;28;20038;-65
2022/05/26 08:32:35;;;;;;;11.07;6.03;;;13.70;99.90;;;;;;5007430;28;20057;-65
2022/05/26 08:35:02;;;;;;;;;;;13.70;99.90;;;;;;5009496;28;20042;-64
2022/05/26 08:37:28;;;;;;;12.27;6.20;;;13.80;99.90;;;;;;5007090;28;20385;-65
2022/05/26 08:39:54;;;;;;;;;;;13.80;99.90;;;;;;5008616;28;20446;-64
2022/05/26 08:42:31;;;;;;;14.07;7.28;;;13.80;99.90;;;;;;5008141;28;19999;-64
2022/05/26 08:45:04;;;;;;;18.30;7.28;;;13.70;99.90;;;;;;5009117;28;20521;-64
2022/05/26 08:47:38;;;;;;;12.55;7.68;;;13.70;99.90;;;;;;5008410;28;20046;-64
2022/05/26 08:50:09;;;;;;;12.25;7.10;;;13.70;99.90;;;;;;5008996;28;20060;-63
2022/05/26 08:52:44;;;;;;;12.27;7.93;;;13.80;99.90;;;;;;5007848;28;20050;-65
2022/05/26 08:55:30;;;;;;;17.70;9.32;;;13.80;99.90;;;;;;5009264;28;20501;-64
2022/05/26 08:58:09;;;;;;;17.42;9.73;;;13.80;99.90;;;;;;5008863;28;21102;-64
2022/05/26 09:00:38;;;;;;;14.63;8.35;;;13.80;99.90;;;;;;5007044;28;20049;-65
2022/05/26 09:03:24;;;;;;;16.65;8.63;;;13.80;99.90;;;;;;5008341;28;20046;-64
2022/05/26 09:06:04;;;;;;;16.42;9.63;;;13.90;99.90;;;;;;5007900;28;20050;-61
2022/05/26 09:13:59;;;;;;;15.93;8.27;;;13.80;99.90;;;;;;5006820;28;20037;-64
2022/05/26 09:16:27;;;;;;;18.52;8.80;;;13.90;99.90;;;;;;5007523;28;20177;-64
2022/05/26 09:19:30;;;;;;;16.75;8.75;;;13.90;99.90;;;;;;5007993;28;20951;-63
2022/05/26 09:21:58;;;;;;;14.27;7.72;;;13.90;99.90;;;;;;4976223;28;20049;-64
2022/05/26 09:24:29;;;;;;;13.02;7.00;;;13.90;99.90;;;;;;5008517;28;20046;-64
2022/05/26 09:27:04;;;;;;;16.52;7.35;;;13.90;99.90;;;;;;5008263;28;20836;-64
2022/05/26 09:29:36;;;;;;;15.60;6.88;;;14.10;99.90;;;;;;5008292;28;20108;-64
2022/05/26 09:32:17;;;;;;;13.18;7.68;;;14.30;99.90;;;;;;5006656;28;20126;-63
2022/05/26 09:34:44;;;;;;;13.30;6.88;;;14.50;99.90;;;;;;5008984;28;20046;-63
2022/05/26 09:37:12;;;;;;;13.88;6.05;;;14.90;99.90;;;;;;5008282;28;20046;-64
2022/05/26 09:39:42;;;;;;;;;;;15.10;99.90;;;;;;5009727;28;20121;-64
2022/05/26 09:42:20;;;;;;;14.65;5.82;;;15.30;99.90;;;;;;5007616;28;19923;-64
2022/05/26 09:45:07;;;;;;;8.40;5.03;;;15.40;99.90;;;;;;5007548;28;20053;-63
2022/05/26 09:47:48;;;;;;;8.45;4.65;;;15.20;99.90;;;;;;5007039;28;20056;-63
2022/05/26 09:50:40;;;;;;;9.52;5.22;;;15.20;99.90;;;;;;5007480;28;20046;-64
2022/05/26 09:53:12;;;;;;;11.70;5.10;;;15.00;99.90;;;;;;5008136;28;20041;-65
2022/05/26 09:55:51;;;;;;;6.88;4.13;;;14.90;99.90;;;;;;5008380;28;20057;-64
2022/05/26 09:58:39;;;;;;;11.32;5.32;;;14.90;99.90;;;;;;5008307;28;20053;-64
2022/05/26 10:01:23;;;;;;;12.10;5.13;;;14.80;99.90;;;;;;5007379;28;20051;-64
2022/05/26 10:04:26;;;;;;;10.18;4.35;;;14.90;99.90;;;;;;5007732;28;20033;-63
2022/05/26 10:06:54;;;;;;;10.52;3.10;;;14.90;99.90;;;;;;5007411;28;20046;-64
2022/05/26 10:09:44;;;;;;;6.55;3.65;;;15.00;99.90;;;;;;5009510;28;20096;-63
2022/05/26 10:12:36;;;;;;;10.80;4.10;;;15.00;99.90;;;;;;5008637;28;20128;-64
2022/05/26 10:15:10;;;;;;;12.70;4.40;;;15.00;99.90;;;;;;5008925;28;20046;-65
2022/05/26 10:17:42;;;;;;;10.73;4.60;;;15.00;99.90;;;;;;5000293;28;20042;-65
2022/05/26 10:20:26;;;;;;;7.85;4.50;;;15.00;99.90;;;;;;5008335;28;20042;-65
2022/05/26 10:23:26;;;;;;;8.32;4.25;;;15.00;99.90;;;;;;5007213;28;20494;-64
2022/05/26 10:26:24;;;;;;;12.70;4.85;;;15.10;99.90;;;;;;5008351;28;20108;-65
2022/05/26 10:28:58;;;;;;;;;;;15.50;99.90;;;;;;5007787;28;20046;-64
2022/05/26 10:31:51;;;;;;;10.77;3.95;;;15.90;99.90;;;;;;5006192;28;20568;-64
2022/05/26 10:34:32;;;;;;;12.32;3.25;;;16.00;99.90;;;;;;5007645;28;20042;-64
2022/05/26 10:37:10;;;;;;;5.95;2.75;;;15.90;99.90;;;;;;5007393;28;20048;-65
2022/05/26 10:40:12;;;;;;;6.75;2.92;;;15.90;99.90;;;;;;5002248;28;20034;-63
2022/05/26 10:42:59;;;;;;;7.82;3.35;;;15.90;99.90;;;;;;5007036;28;20729;-64
2022/05/26 10:45:33;;;;;;;5.88;3.47;;;15.70;99.90;;;;;;5003057;28;20326;-65
2022/05/26 10:48:30;;;;;;;5.32;3.42;;;15.60;99.90;;;;;;5001846;28;20057;-65
2022/05/26 10:51:08;;;;;;;7.68;3.20;;;15.50;99.90;;;;;;5007114;28;20101;-64
2022/05/26 10:53:44;;;;;;;6.10;3.17;;;15.50;99.90;;;;;;5007043;28;20099;-64
2022/05/26 10:56:18;;;;;;;5.20;2.75;;;15.60;99.90;;;;;;5006031;28;20044;-65
2022/05/26 10:58:54;;;;;;;7.30;2.58;;;15.80;99.90;;;;;;5012181;28;20046;-64
2022/05/26 11:01:22;;;;;;;5.72;3.10;;;16.30;99.90;;;;;;5012223;28;20042;-65
2022/05/26 11:03:53;;;;;;;10.18;3.70;;;16.70;99.90;;;;;;5018084;28;20033;-66
2022/05/26 11:06:41;;;;;;;6.95;2.55;;;17.00;99.90;;;;;;5015607;28;20045;-65
2022/05/26 11:09:22;;;;;;;8.82;3.00;;;17.00;99.90;;;;;;5002219;28;20053;-64
2022/05/26 11:11:57;;;;;;;8.85;3.00;;;16.80;99.50;;;;;;5008431;28;20700;-65
2022/05/26 11:17:49;;;;;;;8.07;3.45;;;16.20;99.80;;;;;;5025403;28;20048;-65
2022/05/26 11:20:38;;;;;;;5.13;2.65;;;16.00;99.90;;;;;;5001519;28;20054;-64
2022/05/26 11:23:06;;;;;;;7.43;2.22;;;15.90;99.90;;;;;;5005559;28;20108;-64
2022/05/26 11:25:42;;;;;;;7.43;2.38;;;15.90;99.90;;;;;;5004705;28;20283;-63
2022/05/26 11:28:19;;;;;;;5.57;2.08;;;15.90;99.90;;;;;;5006253;28;20534;-65
2022/05/26 11:37:17;;;;;;;8.85;2.35;;;16.70;99.80;;;;;;4986797;28;20534;-64
2022/05/26 11:39:45;;;;;;;5.95;2.42;;;17.10;98.60;;;;;;5000008;28;20452;-65
2022/05/26 11:42:27;;;;;;;4.85;2.10;;;17.40;96.30;;;;;;5005603;28;20042;-65
2022/05/26 11:45:08;;;;;;;5.57;1.77;;;17.40;96.70;;;;;;5005372;28;20041;-64
2022/05/26 11:47:51;;;;;;;7.95;2.90;;;17.40;97.80;;;;;;5006722;28;20482;-65
2022/05/26 11:50:45;;;;;;;5.78;2.40;;;17.60;96.00;;;;;;5007717;28;20061;-64
2022/05/26 11:53:36;;;;;;;5.80;1.95;;;17.40;95.40;;;;;;5004138;28;20125;-64
2022/05/26 11:56:24;;;;;;;5.47;2.45;;;17.00;96.70;;;;;;5002168;28;20042;-65
2022/05/26 11:59:23;;;;;;;7.88;2.80;;;16.70;96.50;;;;;;5005937;28;20046;-64
2022/05/26 12:01:58;;;;;;;6.75;2.67;;;16.60;97.00;;;;;;4986285;28;20092;-64
2022/05/26 12:04:43;;;;;;;7.22;2.00;;;16.50;97.80;;;;;;5002739;28;20120;-65
2022/05/26 12:07:14;;;;;;;7.22;2.50;;;16.70;97.50;;;;;;5006033;28;20521;-65
2022/05/26 12:09:49;;;;;;;9.40;2.63;;;16.80;97.20;;;;;;5009829;28;20121;-65
2022/05/26 12:12:17;;;;;;;9.13;2.10;;;16.80;98.40;;;;;;5013939;28;20064;-65
2022/05/26 12:14:46;;;;;;;4.82;2.28;;;16.70;98.60;;;;;;5014370;28;20030;-63
2022/05/26 12:17:30;;;;;;;7.05;2.70;;;16.60;98.50;;;;;;5017923;28;20042;-63
2022/05/26 12:20:19;;;;;;;4.85;2.28;;;16.60;98.90;;;;;;5016890;28;20045;-64
2022/05/26 12:22:50;;;;;;;5.70;2.15;;;16.50;98.50;;;;;;4999549;28;20753;-65
2022/05/26 12:25:26;;;;;;;5.85;1.85;;;16.40;98.20;;;;;;5018590;28;20048;-64
2022/05/26 12:27:53;;;;;;;4.68;2.13;;;16.50;98.70;;;;;;5028674;28;20037;-64
2022/05/26 12:30:40;;;;;;;11.00;3.15;;;16.50;97.50;;;;;;5017273;28;20049;-63
2022/05/26 12:33:21;;;;;;;7.22;2.17;;;16.50;97.10;;;;;;5009498;28;20096;-65
2022/05/26 12:36:33;;;;;;;5.28;2.67;;;16.40;97.70;;;;;;5007902;28;20046;-64
2022/05/26 12:39:20;;;;;;;9.52;2.60;;;16.40;97.20;;;;;;4981525;28;20440;-63
2022/05/26 12:41:58;;;;;;;;;;;16.40;98.40;;;;;;5015389;28;20037;-64
2022/05/26 12:44:55;;;;;;;6.85;2.15;;;16.40;98.40;;;;;;5030994;28;20031;-62
2022/05/26 12:47:46;;;;;;;6.28;2.47;;;16.30;98.40;;;;;;5007553;28;20042;-64
2022/05/26 12:50:19;;;;;;;12.45;2.85;;;16.30;98.70;;;;;;5010070;28;20048;-65
2022/05/26 12:52:57;;;;;;;6.70;2.50;;;16.20;98.30;;;;;;5008965;28;20056;-64
2022/05/26 12:55:35;;;;;;;5.40;2.35;;;16.10;97.90;;;;;;5007776;28;20105;-63
2022/05/26 12:58:10;;;;;;;7.95;2.10;;;16.00;98.50;;;;;;5017994;28;20393;-63
2022/05/26 13:00:37;;;;;;;5.38;2.03;;;16.00;99.20;;;;;;5009983;28;20053;-63
2022/05/26 13:03:13;;;;;;;8.30;2.70;;;16.10;98.50;;;;;;5014203;28;20038;-65
2022/05/26 13:05:43;;;;;;;11.48;2.28;;;16.60;98.30;;;;;;5009642;28;20124;-64
2022/05/26 13:08:17;;;;;;;10.90;2.03;;;16.70;97.30;;;;;;5012337;28;20395;-63
2022/05/26 13:10:44;;;;;;;7.88;2.00;;;16.80;96.50;;;;;;5008941;28;21194;-62
2022/05/26 13:13:35;;;;;;;6.38;2.45;;;16.90;96.70;;;;;;5008375;28;20042;-64
2022/05/26 13:16:29;;;;;;;6.55;1.90;;;16.90;96.40;;;;;;5005590;28;20092;-64
2022/05/26 13:18:56;;;;;;;4.72;1.92;;;17.00;96.90;;;;;;5013532;28;20062;-64
2022/05/26 13:21:28;;;;;;;7.13;2.25;;;16.90;97.50;;;;;;5011139;28;20041;-63
2022/05/26 13:23:54;;;;;;;4.28;1.80;;;16.80;97.60;;;;;;5018566;28;20116;-64
2022/05/26 13:26:20;;;;;;;;;;;16.60;97.70;;;;;;5012180;28;20121;-63
2022/05/26 13:28:53;;;;;;;6.13;1.95;;;16.40;97.40;;;;;;5007897;28;19917;-64
2022/05/26 13:34:06;;;;;;;6.28;2.50;;;16.10;98.60;;;;;;5013780;28;20116;-64
2022/05/26 13:36:39;;;;;;;9.07;2.53;;;16.00;98.60;;;;;;5012222;28;20033;-64
2022/05/26 13:39:24;;;;;;;7.97;2.40;;;15.90;98.80;;;;;;5018391;28;20049;-65
2022/05/26 13:41:53;;;;;;;6.47;2.47;;;16.30;99.40;;;;;;5005956;28;20045;-65
2022/05/26 13:44:49;;;;;;;5.45;1.95;;;16.70;98.90;;;;;;5009955;28;20621;-67
2022/05/26 13:47:15;;;;;;;6.03;2.42;;;17.10;98.90;;;;;;5013651;28;20573;-65
2022/05/26 13:49:43;;;;;;;;;;;17.20;97.10;;;;;;5008577;28;20148;-65
2022/05/26 13:52:18;;;;;;;6.20;1.95;;;17.30;97.00;;;;;;5007548;28;19917;-65
2022/05/26 13:54:54;;;;;;;8.68;2.70;;;17.20;97.50;;;;;;5007443;28;20084;-64
2022/05/26 13:57:45;;;;;;;8.20;2.50;;;17.30;97.10;;;;;;5008493;28;20626;-64
2022/05/26 14:00:21;;;;;;;9.60;2.40;;;17.30;96.60;;;;;;5011689;28;20088;-65
2022/05/26 14:03:07;;;;;;;7.80;2.30;;;17.10;96.80;;;;;;5005264;28;20046;-63
2022/05/26 14:05:55;;;;;;;6.95;1.98;;;17.00;96.90;;;;;;5026906;28;20041;-64
2022/05/26 14:08:21;;;;;;;8.60;2.63;;;16.90;97.80;;;;;;5007200;28;20212;-64
2022/05/26 14:11:03;;;;;;;;;;;16.90;97.60;;;;;;5017560;28;20116;-65
2022/05/26 14:13:38;;;;;;;7.32;2.22;;;17.10;97.60;;;;;;5019623;28;19917;-65